Time;durP1;ratioP1;P1;durP2;ratioP2;P2;SDS_P1;SDS_P2;PMS_P1;PMS_P2;Temp;Humidity;BMP_temperature;BMP_pressure;BME280_temperature;BME280_humidity;BME280_pressure;Samples;Min_cycle;Max_cycle;Signal;HPM_P1;HPM_P2
2022/05/27 00:00:41;;;;;;;0.60;0.60;;;;;;;16.95;78.96;96032.09;4376654;32;20193;-59
2022/05/27 00:03:10;;;;;;;0.50;0.50;;;;;;;16.88;79.61;96029.87;4335630;32;20215;-58
2022/05/27 00:05:36;;;;;;;1.03;1.03;;;;;;;16.90;79.30;96030.34;4362751;32;20192;-59
2022/05/27 00:08:04;;;;;;;1.03;0.57;;;;;;;16.90;78.50;96027.66;4372522;32;20219;-59
2022/05/27 00:10:30;;;;;;;1.00;1.00;;;;;;;16.89;79.61;96020.72;4376497;32;20197;-59
2022/05/27 00:12:56;;;;;;;1.47;0.70;;;;;;;16.91;79.69;96021.19;4379605;32;20253;-59
2022/05/27 00:15:22;;;;;;;1.03;0.97;;;;;;;16.90;79.30;96016.94;4360420;32;20197;-60
2022/05/27 00:17:48;;;;;;;1.57;1.47;;;;;;;16.87;79.11;96014.87;4382506;32;20330;-60
2022/05/27 00:20:15;;;;;;;1.07;0.63;;;;;;;16.87;79.07;96006.06;4374652;32;20188;-59
2022/05/27 00:22:41;;;;;;;0.80;0.80;;;;;;;16.72;79.60;96010.00;4367430;32;20199;-59
2022/05/27 00:25:09;;;;;;;0.33;0.33;;;;;;;16.65;79.76;96009.69;4381149;32;20207;-59
2022/05/27 00:27:36;;;;;;;0.40;0.40;;;;;;;16.71;80.48;96003.06;4362961;32;20216;-58
2022/05/27 00:30:14;;;;;;;0.83;0.83;;;;;;;16.78;79.42;96006.09;4372815;32;20196;-59
2022/05/27 00:32:42;;;;;;;0.80;0.53;;;;;;;16.76;80.04;95995.69;4375920;32;20196;-58
2022/05/27 00:35:08;;;;;;;0.50;0.50;;;;;;;16.76;79.20;95997.56;4377144;32;20199;-59
2022/05/27 00:37:34;;;;;;;0.30;0.30;;;;;;;16.77;78.81;95996.47;4375059;32;20184;-59
2022/05/27 00:40:00;;;;;;;0.80;0.80;;;;;;;16.59;79.27;95995.66;4379837;32;20196;-58
2022/05/27 00:42:27;;;;;;;0.57;0.57;;;;;;;16.54;80.04;95993.13;4350265;32;20250;-59
2022/05/27 00:44:57;;;;;;;0.83;0.83;;;;;;;16.66;80.52;95984.47;4376117;32;20200;-59
2022/05/27 00:47:25;;;;;;;0.60;0.53;;;;;;;16.64;78.97;95986.66;4367486;32;20230;-60
2022/05/27 00:50:03;;;;;;;0.80;0.80;;;;;;;16.57;79.82;95980.97;4347261;32;20342;-59
2022/05/27 00:52:34;;;;;;;0.57;0.57;;;;;;;16.46;79.97;95983.97;4362759;32;20206;-59
2022/05/27 00:55:09;;;;;;;0.23;0.23;;;;;;;16.31;79.63;95980.97;4372796;32;20226;-59
2022/05/27 00:57:47;;;;;;;0.30;0.30;;;;;;;16.49;80.04;95982.53;4381804;32;20184;-58
2022/05/27 01:00:18;;;;;;;0.17;0.17;;;;;;;16.52;80.17;95984.59;4388014;32;20196;-59
2022/05/27 01:02:47;;;;;;;0.57;0.57;;;;;;;16.38;80.44;95984.75;4374262;32;20188;-59
2022/05/27 01:05:17;;;;;;;0.30;0.30;;;;;;;16.50;79.54;95989.47;4370525;32;20189;-59
2022/05/27 01:07:44;;;;;;;0.37;0.37;;;;;;;16.43;79.90;95981.91;4385877;32;20282;-58
2022/05/27 01:10:13;;;;;;;0.40;0.40;;;;;;;16.10;81.23;95994.16;4381207;32;20317;-60
2022/05/27 01:13:12;;;;;;;0.40;0.40;;;;;;;16.11;80.73;95988.47;4378669;32;20192;-59
2022/05/27 01:15:59;;;;;;;0.97;0.97;;;;;;;16.12;81.03;95991.94;4372196;32;20185;-59
2022/05/27 01:22:08;;;;;;;7.13;0.90;;;;;;;16.11;80.29;95995.72;4364274;32;20208;-59
2022/05/27 01:25:26;;;;;;;0.43;0.43;;;;;;;16.20;81.33;95980.47;4332613;32;20189;-59
2022/05/27 01:28:13;;;;;;;0.40;0.40;;;;;;;16.14;80.57;95995.09;4345672;32;20220;-59
2022/05/27 01:31:03;;;;;;;0.30;0.30;;;;;;;16.23;81.55;95993.22;4345691;32;20265;-60
2022/05/27 01:33:49;;;;;;;0.47;0.47;;;;;;;16.23;80.58;95992.44;4357070;32;20181;-61
2022/05/27 01:36:20;;;;;;;0.47;0.47;;;;;;;16.04;81.49;95996.16;4328560;32;20227;-59
2022/05/27 01:38:51;;;;;;;0.80;0.80;;;;;;;16.01;81.88;95991.44;4358237;32;20189;-59
2022/05/27 01:41:37;;;;;;;0.87;0.87;;;;;;;15.89;82.71;95987.78;4368594;32;20185;-59
2022/05/27 01:44:13;;;;;;;0.57;0.53;;;;;;;16.13;81.73;95983.59;4358218;32;20208;-59
2022/05/27 01:46:49;;;;;;;0.30;0.30;;;;;;;16.12;80.93;95989.28;4332910;32;20181;-59
2022/05/27 01:49:37;;;;;;;0.70;0.70;;;;;;;16.19;80.82;95981.56;4337745;32;20177;-59
2022/05/27 01:52:52;;;;;;;0.40;0.40;;;;;;;16.11;81.20;95976.97;4337115;32;20193;-59
2022/05/27 01:55:40;;;;;;;0.97;0.47;;;;;;;16.12;81.22;95975.88;4319649;32;23242;-59
2022/05/27 01:58:25;;;;;;;0.30;0.30;;;;;;;16.00;81.49;95979.16;4339511;32;20242;-59
2022/05/27 02:00:54;;;;;;;0.57;0.57;;;;;;;16.09;81.36;95981.84;4341687;32;20199;-59
2022/05/27 02:03:26;;;;;;;0.30;0.30;;;;;;;15.88;81.74;95987.00;4361656;32;20208;-59
2022/05/27 02:06:19;;;;;;;0.30;0.30;;;;;;;16.08;81.42;95977.59;4381217;32;20225;-59
2022/05/27 02:09:06;;;;;;;0.50;0.50;;;;;;;16.02;82.10;95981.50;4397182;32;20196;-59
2022/05/27 02:11:33;;;;;;;0.30;0.30;;;;;;;16.09;81.10;95971.94;4392567;32;20188;-59
2022/05/27 02:14:38;;;;;;;0.30;0.30;;;;;;;16.07;81.93;95978.69;4376792;32;20238;-59
2022/05/27 02:17:15;;;;;;;0.40;0.40;;;;;;;15.89;81.32;95985.09;4375299;32;20220;-59
2022/05/27 02:19:56;;;;;;;0.63;0.40;;;;;;;15.83;82.80;95981.78;4374959;32;20231;-58
2022/05/27 02:22:40;;;;;;;0.53;0.47;;;;;;;16.01;82.33;95983.41;4366752;32;20188;-58
2022/05/27 02:25:20;;;;;;;0.60;0.60;;;;;;;15.88;82.64;95981.66;4373903;32;20204;-59
2022/05/27 02:28:15;;;;;;;0.60;0.60;;;;;;;15.96;82.14;95988.12;4347699;32;20207;-59
2022/05/27 02:30:46;;;;;;;0.57;0.50;;;;;;;15.99;81.84;95980.28;4384390;32;20257;-59
2022/05/27 02:36:09;;;;;;;0.37;0.37;;;;;;;15.87;83.01;95984.63;4377233;32;20295;-59
2022/05/27 02:38:34;;;;;;;0.50;0.50;;;;;;;15.76;81.40;95982.25;4369719;32;20196;-59
2022/05/27 02:41:40;;;;;;;0.43;0.43;;;;;;;15.68;83.98;95983.00;4380208;32;20274;-59
2022/05/27 02:44:39;;;;;;;0.30;0.30;;;;;;;15.68;84.20;95979.53;4366150;32;20188;-59
2022/05/27 02:47:16;;;;;;;0.53;0.47;;;;;;;15.93;82.85;95986.06;4402280;32;20202;-59
2022/05/27 02:50:38;;;;;;;2.03;0.53;;;;;;;15.79;83.91;95984.28;4378236;32;20193;-59
2022/05/27 02:53:28;;;;;;;0.27;0.27;;;;;;;15.89;83.63;95982.44;4346259;32;20224;-59
2022/05/27 02:56:31;;;;;;;0.40;0.40;;;;;;;15.84;81.65;95980.69;4378556;32;20188;-59
2022/05/27 02:58:57;;;;;;;1.83;0.63;;;;;;;15.88;83.84;95983.53;4378298;32;20188;-59
2022/05/27 03:01:22;;;;;;;0.30;0.30;;;;;;;15.82;83.60;95983.66;4378596;32;20239;-59
2022/05/27 03:03:51;;;;;;;0.40;0.40;;;;;;;15.90;83.57;95978.66;4398530;32;20276;-59
2022/05/27 03:07:03;;;;;;;0.37;0.37;;;;;;;15.87;83.33;95987.31;4375019;32;20193;-59
2022/05/27 03:09:54;;;;;;;10.63;0.93;;;;;;;15.70;81.21;95986.16;4355036;32;20189;-59
2022/05/27 03:12:36;;;;;;;0.40;0.40;;;;;;;15.71;82.93;95984.25;4372781;32;20255;-59
2022/05/27 03:15:19;;;;;;;0.33;0.33;;;;;;;15.66;83.38;95981.72;4386645;32;20198;-59
2022/05/27 03:18:30;;;;;;;0.20;0.20;;;;;;;15.73;81.81;95982.88;4384389;32;20184;-60
2022/05/27 03:21:22;;;;;;;1.17;1.17;;;;;;;15.79;83.35;95978.16;4382859;32;20196;-59
2022/05/27 03:24:26;;;;;;;0.20;0.20;;;;;;;15.94;83.19;95974.28;4373994;32;20324;-60
2022/05/27 03:27:28;;;;;;;0.40;0.40;;;;;;;16.05;82.83;95979.00;4356429;32;20195;-60
2022/05/27 03:30:10;;;;;;;0.30;0.30;;;;;;;15.86;80.97;95978.50;4382597;32;20249;-59
2022/05/27 03:32:48;;;;;;;0.70;0.70;;;;;;;15.95;82.41;95986.56;4346485;32;20185;-59
2022/05/27 03:35:35;;;;;;;0.60;0.60;;;;;;;16.05;84.08;95986.25;4379963;32;20173;-59
2022/05/27 03:38:12;;;;;;;0.60;0.60;;;;;;;15.68;80.85;95983.00;4377716;32;20308;-59
2022/05/27 03:41:18;;;;;;;0.27;0.27;;;;;;;15.86;82.69;95980.38;4365446;32;20180;-59
2022/05/27 03:43:45;;;;;;;0.53;0.53;;;;;;;16.00;83.86;95981.81;4361902;32;20193;-59
2022/05/27 03:46:12;;;;;;;0.30;0.30;;;;;;;16.00;80.36;95978.38;4380818;32;20259;-59
2022/05/27 03:48:38;;;;;;;0.43;0.43;;;;;;;15.93;81.09;95984.19;4367192;32;20212;-59
2022/05/27 03:51:19;;;;;;;0.40;0.40;;;;;;;15.94;82.04;95979.63;4369605;32;20192;-59
2022/05/27 03:54:04;;;;;;;0.30;0.30;;;;;;;16.10;82.59;95983.44;4368200;32;20234;-58
2022/05/27 03:56:39;;;;;;;0.90;0.60;;;;;;;16.09;80.81;95981.84;4358743;32;20252;-60
2022/05/27 03:59:10;;;;;;;0.43;0.43;;;;;;;16.00;82.33;95989.09;4369201;32;20210;-59
2022/05/27 04:01:39;;;;;;;0.30;0.30;;;;;;;15.95;79.04;95991.91;4368536;32;20188;-59
2022/05/27 04:04:15;;;;;;;0.37;0.27;;;;;;;16.17;82.50;95983.78;4374041;32;20181;-59
2022/05/27 04:06:42;;;;;;;1.30;0.73;;;;;;;15.97;79.52;95984.34;4371472;32;20255;-59
2022/05/27 04:09:09;;;;;;;0.30;0.30;;;;;;;16.01;81.48;95985.28;4350774;32;20212;-59
2022/05/27 04:11:37;;;;;;;0.57;0.43;;;;;;;16.15;82.07;95983.31;4357049;32;20209;-59
2022/05/27 04:14:05;;;;;;;0.33;0.33;;;;;;;16.23;80.98;95989.75;4343871;32;20193;-59
2022/05/27 04:16:32;;;;;;;0.77;0.77;;;;;;;16.12;82.30;95989.28;4333167;32;20189;-59
2022/05/27 04:19:22;;;;;;;0.50;0.50;;;;;;;16.04;80.08;95990.81;4342876;32;20184;-59
2022/05/27 04:21:48;;;;;;;0.77;0.70;;;;;;;16.13;81.81;95986.28;4361216;32;20267;-59
2022/05/27 04:24:14;;;;;;;0.17;0.17;;;;;;;16.10;81.94;95983.44;4361223;32;20184;-60
2022/05/27 04:26:41;;;;;;;0.70;0.70;;;;;;;16.22;82.20;95985.50;4367798;32;20216;-59
2022/05/27 04:29:07;;;;;;;0.50;0.50;;;;;;;16.26;82.76;95997.16;4353174;32;20204;-59
2022/05/27 04:31:33;;;;;;;0.40;0.40;;;;;;;15.89;81.04;95990.47;4381911;32;20208;-59
2022/05/27 04:33:58;;;;;;;0.33;0.33;;;;;;;15.77;81.23;95986.50;4374712;32;20217;-59
2022/05/27 04:36:25;;;;;;;0.27;0.27;;;;;;;15.99;84.86;95987.50;4365942;32;20188;-58
2022/05/27 04:38:52;;;;;;;0.43;0.43;;;;;;;15.97;81.96;95984.34;4326459;32;20453;-59
2022/05/27 04:41:23;;;;;;;0.70;0.70;;;;;;;16.13;84.02;95978.25;4335779;32;20216;-59
2022/05/27 04:43:49;;;;;;;10.23;1.03;;;;;;;16.04;83.94;95980.09;4369534;32;20374;-59
2022/05/27 04:46:16;;;;;;;0.40;0.40;;;;;;;16.34;82.89;95978.44;4366126;32;20193;-60
2022/05/27 04:48:42;;;;;;;0.37;0.37;;;;;;;16.31;82.99;95981.75;4363663;32;20183;-60
2022/05/27 04:51:09;;;;;;;3.00;0.93;;;;;;;16.30;84.54;95971.34;4341728;32;20276;-60
2022/05/27 04:53:34;;;;;;;0.30;0.30;;;;;;;16.33;82.67;95978.75;4369033;32;20188;-59
2022/05/27 04:56:02;;;;;;;0.57;0.57;;;;;;;16.36;82.46;95975.47;4367622;32;20315;-59
2022/05/27 04:58:36;;;;;;;0.53;0.53;;;;;;;16.33;81.53;95976.87;4363249;32;20219;-58
2022/05/27 05:01:04;;;;;;;0.43;0.43;;;;;;;16.64;83.27;95974.06;4349789;32;20211;-60
2022/05/27 05:03:30;;;;;;;5.00;0.57;;;;;;;16.52;81.25;95976.56;4357740;32;20203;-58
2022/05/27 05:05:57;;;;;;;0.57;0.57;;;;;;;16.47;79.95;95972.16;4380902;32;20193;-58
2022/05/27 05:08:34;;;;;;;0.30;0.30;;;;;;;16.42;80.15;95966.16;4389028;32;20251;-58
2022/05/27 05:11:10;;;;;;;1.03;1.03;;;;;;;16.59;82.01;95958.12;4375752;32;20205;-59
2022/05/27 05:13:37;;;;;;;0.53;0.53;;;;;;;16.59;81.92;95962.72;4357350;32;20232;-58
2022/05/27 05:16:05;;;;;;;1.60;0.83;;;;;;;16.57;78.86;95970.28;4374629;32;20185;-58
2022/05/27 05:18:30;;;;;;;0.23;0.23;;;;;;;16.64;81.83;95965.25;4382595;32;20224;-58
2022/05/27 05:20:57;;;;;;;0.30;0.30;;;;;;;16.78;82.04;95963.19;4377660;32;20203;-58
2022/05/27 05:23:25;;;;;;;0.20;0.20;;;;;;;16.34;79.21;95965.06;4366458;32;20247;-59
2022/05/27 05:25:50;;;;;;;0.50;0.50;;;;;;;16.30;78.42;95964.09;4370523;32;20256;-59
2022/05/27 05:28:16;;;;;;;0.40;0.40;;;;;;;16.43;82.19;95959.69;4381644;32;20184;-59
2022/05/27 05:30:42;;;;;;;0.60;0.60;;;;;;;16.44;81.36;95951.34;4368937;32;20185;-58
2022/05/27 05:33:07;;;;;;;6.70;0.83;;;;;;;16.52;82.16;95949.78;4364573;32;20188;-59
2022/05/27 05:35:35;;;;;;;0.37;0.37;;;;;;;16.53;82.31;95951.34;4334541;32;20251;-59
2022/05/27 05:38:21;;;;;;;2.57;1.00;;;;;;;16.56;81.33;95947.25;4371901;32;20230;-59
2022/05/27 05:40:48;;;;;;;0.40;0.40;;;;;;;16.61;80.56;95955.16;4382278;32;20199;-59
2022/05/27 05:43:14;;;;;;;0.10;0.10;;;;;;;16.50;79.60;95947.41;4397955;32;20189;-59
2022/05/27 05:45:41;;;;;;;0.97;0.33;;;;;;;16.32;78.09;95951.19;4379843;32;20207;-60
2022/05/27 05:48:12;;;;;;;0.63;0.63;;;;;;;16.10;79.51;95964.69;4358509;32;20185;-59
2022/05/27 05:50:40;;;;;;;0.77;0.77;;;;;;;16.24;82.00;95951.97;4376667;32;20215;-59
2022/05/27 05:53:06;;;;;;;0.43;0.43;;;;;;;16.26;81.37;95960.47;4376139;32;20233;-59
2022/05/27 05:55:35;;;;;;;0.60;0.60;;;;;;;16.38;79.33;95960.66;4375485;32;20211;-59
2022/05/27 05:58:02;;;;;;;0.40;0.40;;;;;;;16.32;80.86;95953.87;4375451;32;20247;-59
2022/05/27 06:00:30;;;;;;;0.30;0.30;;;;;;;16.42;82.23;95966.94;4393992;32;20177;-60
2022/05/27 06:02:55;;;;;;;0.50;0.50;;;;;;;16.45;80.41;95952.91;4384970;32;20188;-59
2022/05/27 06:05:23;;;;;;;0.53;0.53;;;;;;;16.60;80.64;95948.22;4350597;32;20200;-60
2022/05/27 06:07:51;;;;;;;0.83;0.83;;;;;;;16.52;79.65;95957.03;4345270;32;20264;-59
2022/05/27 06:10:19;;;;;;;1.20;0.50;;;;;;;16.63;78.85;95947.56;4367893;32;20272;-59
2022/05/27 06:12:46;;;;;;;0.37;0.37;;;;;;;16.58;77.95;95956.56;4377802;32;20203;-59
2022/05/27 06:15:14;;;;;;;0.57;0.57;;;;;;;16.61;79.46;95947.91;4383701;32;20198;-59
2022/05/27 06:17:44;;;;;;;0.43;0.43;;;;;;;16.71;79.12;95946.81;4377345;32;20188;-59
2022/05/27 06:20:11;;;;;;;0.43;0.43;;;;;;;16.73;79.32;95940.03;4384638;32;20188;-59
2022/05/27 06:22:38;;;;;;;2.30;0.67;;;;;;;16.72;76.34;95937.66;4391855;32;20192;-59
2022/05/27 06:25:07;;;;;;;0.60;0.60;;;;;;;16.76;76.47;95942.06;4382068;32;20181;-61
2022/05/27 06:27:34;;;;;;;0.57;0.53;;;;;;;16.99;79.46;95940.00;4367118;32;20189;-61
2022/05/27 06:35:32;;;;;;;2.00;0.43;;;;;;;17.21;75.57;95946.25;4376973;32;20199;-61
2022/05/27 06:37:58;;;;;;;0.43;0.43;;;;;;;17.42;76.75;95937.19;4387621;32;20222;-60
2022/05/27 06:40:24;;;;;;;0.47;0.47;;;;;;;17.30;72.94;95939.75;4371559;32;20188;-60
2022/05/27 06:42:50;;;;;;;0.20;0.20;;;;;;;17.39;73.49;95939.72;4355883;32;20185;-60
2022/05/27 06:45:18;;;;;;;0.40;0.40;;;;;;;17.51;73.14;95940.63;4379269;32;20211;-60
2022/05/27 06:47:44;;;;;;;0.57;0.57;;;;;;;17.69;72.12;95946.72;4370466;32;20214;-60
2022/05/27 06:50:11;;;;;;;0.40;0.40;;;;;;;17.62;73.62;95943.75;4378549;32;20197;-60
2022/05/27 06:52:40;;;;;;;0.50;0.50;;;;;;;17.57;74.81;95949.28;4376286;32;20246;-61
2022/05/27 06:55:06;;;;;;;2.07;0.43;;;;;;;17.91;76.32;95947.56;4369903;32;20196;-60
2022/05/27 06:57:34;;;;;;;0.10;0.10;;;;;;;18.10;72.21;95947.94;4330080;32;20216;-63
2022/05/27 07:00:00;;;;;;;0.20;0.20;;;;;;;18.01;71.87;95944.53;4373011;32;20220;-61
2022/05/27 07:02:26;;;;;;;0.43;0.43;;;;;;;18.06;73.34;95933.59;4381535;32;20213;-61
2022/05/27 07:04:51;;;;;;;0.23;0.23;;;;;;;18.19;69.10;95933.34;4373075;32;20219;-61
2022/05/27 07:07:19;;;;;;;0.47;0.30;;;;;;;18.12;70.52;95926.91;4371490;32;20192;-60
2022/05/27 07:09:45;;;;;;;0.50;0.50;;;;;;;18.15;68.14;95920.88;4376197;32;20219;-60
2022/05/27 07:12:12;;;;;;;0.27;0.27;;;;;;;18.41;71.82;95918.81;4375726;32;20235;-60
2022/05/27 07:14:38;;;;;;;0.30;0.30;;;;;;;18.43;69.04;95921.97;4367984;32;20215;-60
2022/05/27 07:17:05;;;;;;;0.10;0.10;;;;;;;18.50;69.73;95924.09;4377813;32;20204;-60
2022/05/27 07:19:32;;;;;;;0.30;0.30;;;;;;;18.42;69.11;95920.38;4375696;32;20247;-60
2022/05/27 07:22:09;;;;;;;0.10;0.10;;;;;;;18.47;69.71;95924.78;4380709;32;20232;-60
2022/05/27 07:24:39;;;;;;;1.60;0.40;;;;;;;18.46;67.64;95926.69;4377365;32;20184;-60
2022/05/27 07:27:07;;;;;;;0.30;0.30;;;;;;;18.49;67.31;95909.91;4345023;32;20177;-60
2022/05/27 07:29:34;;;;;;;0.00;0.00;;;;;;;18.52;66.48;95903.84;4359816;32;20247;-60
2022/05/27 07:31:59;;;;;;;7.53;0.70;;;;;;;18.38;67.39;95900.66;4364246;32;20188;-60
2022/05/27 07:34:27;;;;;;;0.20;0.20;;;;;;;18.33;68.57;95900.06;4377289;32;20254;-60
2022/05/27 07:36:54;;;;;;;0.20;0.20;;;;;;;18.40;66.96;95905.69;4358428;32;20311;-60
2022/05/27 07:39:19;;;;;;;0.33;0.30;;;;;;;18.51;66.65;95914.91;4363461;32;20215;-60
2022/05/27 07:41:47;;;;;;;0.47;0.33;;;;;;;18.71;68.95;95916.03;4380136;32;20248;-61
2022/05/27 07:44:15;;;;;;;0.37;0.37;;;;;;;18.61;66.84;95908.41;4377358;32;20203;-60
2022/05/27 07:46:46;;;;;;;0.33;0.33;;;;;;;18.69;65.33;95892.22;4376455;32;20225;-61
2022/05/27 07:49:13;;;;;;;0.30;0.30;;;;;;;18.74;66.02;95893.87;4380422;32;20226;-60
2022/05/27 07:51:39;;;;;;;0.33;0.33;;;;;;;18.79;65.03;95896.38;4377781;32;20192;-61
2022/05/27 07:54:05;;;;;;;0.33;0.33;;;;;;;19.02;66.67;95886.81;4375544;32;20263;-60
2022/05/27 07:56:30;;;;;;;0.10;0.10;;;;;;;19.01;66.25;95887.91;4369507;32;20203;-59
2022/05/27 07:58:56;;;;;;;0.50;0.50;;;;;;;19.07;65.23;95899.25;4379447;32;20204;-59
2022/05/27 08:01:23;;;;;;;0.20;0.20;;;;;;;19.02;64.83;95894.88;4348541;32;20251;-58
2022/05/27 08:03:52;;;;;;;0.30;0.30;;;;;;;18.86;65.48;95881.28;4378608;32;20256;-58
2022/05/27 08:06:19;;;;;;;0.40;0.40;;;;;;;18.90;66.93;95886.78;4362806;32;20193;-58
2022/05/27 08:08:47;;;;;;;0.27;0.27;;;;;;;19.02;66.88;95888.72;4361014;32;20188;-58
2022/05/27 08:11:15;;;;;;;0.13;0.13;;;;;;;18.92;65.35;95889.91;4381726;32;20229;-58
2022/05/27 08:13:42;;;;;;;0.00;0.00;;;;;;;19.07;67.72;95877.75;4342156;32;20189;-58
2022/05/27 08:16:10;;;;;;;0.10;0.10;;;;;;;19.05;66.34;95874.59;4360542;32;20180;-58
2022/05/27 08:18:37;;;;;;;3.90;0.63;;;;;;;19.28;65.79;95878.44;4355931;32;20193;-58
2022/05/27 08:21:05;;;;;;;0.23;0.23;;;;;;;19.33;66.59;95878.22;4363930;32;20238;-58
2022/05/27 08:23:34;;;;;;;1.70;0.60;;;;;;;19.32;67.21;95878.56;4375310;32;20180;-58
2022/05/27 08:26:01;;;;;;;0.33;0.33;;;;;;;19.42;66.25;95873.50;4371955;32;20259;-58
2022/05/27 08:28:28;;;;;;;0.13;0.13;;;;;;;19.30;65.08;95872.72;4380609;32;20259;-58
2022/05/27 08:30:55;;;;;;;0.40;0.40;;;;;;;19.39;65.42;95881.47;4383188;32;20180;-58
2022/05/27 08:33:22;;;;;;;0.77;0.50;;;;;;;19.47;64.45;95883.28;4379430;32;20207;-58
2022/05/27 08:38:34;;;;;;;0.40;0.40;;;;;;;19.47;65.10;95867.91;4379714;32;20255;-58
2022/05/27 08:41:23;;;;;;;0.43;0.43;;;;;;;19.53;64.11;95860.44;4389149;32;20180;-59
2022/05/27 08:44:07;;;;;;;0.20;0.20;;;;;;;19.55;64.05;95867.03;4379439;32;20272;-58
2022/05/27 08:46:33;;;;;;;0.50;0.50;;;;;;;19.52;64.83;95877.72;4380874;32;20231;-58
2022/05/27 08:49:03;;;;;;;2.70;0.77;;;;;;;19.62;64.18;95871.06;4391381;32;20196;-58
2022/05/27 08:51:37;;;;;;;0.77;0.77;;;;;;;19.77;66.63;95855.00;4378765;32;20219;-61
2022/05/27 08:54:07;;;;;;;0.10;0.10;;;;;;;19.85;64.68;95862.19;4385990;32;20207;-57
2022/05/27 08:59:31;;;;;;;0.63;0.50;;;;;;;19.97;65.86;95869.47;4381356;32;20200;-58
2022/05/27 09:02:20;;;;;;;0.30;0.30;;;;;;;20.04;65.47;95871.59;4380242;32;20183;-58
2022/05/27 09:04:55;;;;;;;0.30;0.30;;;;;;;20.03;63.49;95867.31;4385785;32;20180;-58
2022/05/27 09:07:26;;;;;;;0.40;0.40;;;;;;;20.15;64.77;95854.63;4374592;32;20188;-58
2022/05/27 09:09:52;;;;;;;0.67;0.20;;;;;;;20.22;62.36;95862.13;4381457;32;20195;-59
2022/05/27 09:12:30;;;;;;;0.27;0.27;;;;;;;20.16;61.82;95858.88;4380916;32;20219;-58
2022/05/27 09:15:11;;;;;;;0.17;0.17;;;;;;;20.17;63.18;95863.13;4382141;32;20226;-60
2022/05/27 09:17:42;;;;;;;0.27;0.20;;;;;;;20.13;63.08;95856.09;4374914;32;20242;-58
2022/05/27 09:20:24;;;;;;;0.77;0.50;;;;;;;20.08;62.22;95853.63;4388298;32;20191;-58
2022/05/27 09:23:11;;;;;;;0.27;0.27;;;;;;;20.04;61.89;95852.72;4382226;32;20271;-58
2022/05/27 09:26:06;;;;;;;0.20;0.20;;;;;;;20.00;61.81;95843.75;4385329;32;20230;-58
2022/05/27 09:28:46;;;;;;;0.13;0.13;;;;;;;20.03;62.98;95851.94;4366655;32;20240;-58
2022/05/27 09:31:18;;;;;;;0.20;0.20;;;;;;;20.22;62.33;95844.03;4384860;32;20224;-58
2022/05/27 09:33:46;;;;;;;0.10;0.10;;;;;;;20.24;62.46;95849.88;4371123;32;20199;-58
2022/05/27 09:36:28;;;;;;;0.37;0.37;;;;;;;20.36;62.83;95838.28;4378551;32;20228;-59
2022/05/27 09:38:59;;;;;;;0.00;0.00;;;;;;;20.42;62.77;95842.31;4367611;32;20199;-58
2022/05/27 09:42:02;;;;;;;0.30;0.30;;;;;;;20.48;62.14;95830.16;4370726;32;20192;-58
2022/05/27 09:44:48;;;;;;;0.50;0.50;;;;;;;20.41;61.19;95840.75;4389682;32;20200;-58
2022/05/27 09:47:16;;;;;;;0.30;0.30;;;;;;;20.61;60.92;95838.19;4389410;32;20172;-58
2022/05/27 09:49:44;;;;;;;0.40;0.40;;;;;;;20.43;61.29;95843.88;4381641;32;20223;-58
2022/05/27 09:52:09;;;;;;;0.17;0.17;;;;;;;20.35;61.26;95834.00;4380965;32;20227;-58
2022/05/27 09:54:46;;;;;;;0.30;0.30;;;;;;;20.36;61.54;95830.19;4399774;32;20180;-57
2022/05/27 09:57:11;;;;;;;0.63;0.63;;;;;;;20.40;60.57;95835.69;4375488;32;20242;-59
2022/05/27 09:59:46;;;;;;;0.17;0.17;;;;;;;20.48;61.70;95824.78;4381653;32;20184;-59
2022/05/27 10:02:35;;;;;;;0.43;0.43;;;;;;;20.65;60.44;95820.97;4384320;32;20215;-59
2022/05/27 10:05:15;;;;;;;0.20;0.20;;;;;;;20.59;59.78;95819.66;4385977;32;20203;-59
2022/05/27 10:07:43;;;;;;;0.20;0.10;;;;;;;20.42;60.39;95819.97;4392348;32;20203;-59
2022/05/27 10:10:22;;;;;;;0.10;0.10;;;;;;;20.46;61.05;95821.63;4380241;32;20202;-58
2022/05/27 10:12:48;;;;;;;0.87;0.87;;;;;;;20.50;60.93;95822.53;4387349;32;20220;-58
2022/05/27 10:15:33;;;;;;;1.03;0.57;;;;;;;20.58;59.74;95826.94;4390005;32;20250;-59
2022/05/27 10:18:15;;;;;;;0.23;0.23;;;;;;;20.65;59.03;95830.97;4381759;32;20196;-63
2022/05/27 10:20:42;;;;;;;0.30;0.30;;;;;;;20.68;59.21;95814.91;4382635;32;20195;-58
2022/05/27 10:23:11;;;;;;;0.40;0.40;;;;;;;20.79;59.47;95823.25;4392557;32;20189;-58
2022/05/27 10:25:40;;;;;;;1.70;1.60;;;;;;;20.85;59.82;95808.37;4369458;32;20177;-58
2022/05/27 10:28:08;;;;;;;4.50;1.03;;;;;;;20.97;59.86;95810.25;4366423;32;20254;-59
2022/05/27 10:30:37;;;;;;;0.70;0.70;;;;;;;20.99;59.27;95806.03;4381673;32;20263;-59
2022/05/27 10:33:43;;;;;;;0.47;0.47;;;;;;;20.91;60.68;95810.50;4391315;32;20176;-58
2022/05/27 10:36:43;;;;;;;0.10;0.10;;;;;;;20.72;60.06;95798.81;4373255;32;20210;-59
2022/05/27 10:39:13;;;;;;;0.53;0.53;;;;;;;20.62;59.38;95796.63;4360159;32;20230;-58
2022/05/27 10:42:16;;;;;;;1.03;1.03;;;;;;;20.72;60.60;95796.13;4377618;32;20180;-58
2022/05/27 10:45:19;;;;;;;0.33;0.33;;;;;;;20.68;59.38;95790.62;4385486;32;20246;-58
2022/05/27 10:47:53;;;;;;;0.73;0.73;;;;;;;20.66;59.33;95792.09;4384580;32;20180;-59
2022/05/27 10:50:29;;;;;;;0.33;0.33;;;;;;;20.47;60.54;95795.47;4392938;32;22222;-59
2022/05/27 10:53:08;;;;;;;0.30;0.30;;;;;;;20.37;60.43;95796.72;4397520;32;20218;-59
2022/05/27 10:55:51;;;;;;;0.47;0.27;;;;;;;20.35;61.86;95787.41;4370382;32;20184;-58
2022/05/27 11:02:09;;;;;;;0.30;0.30;;;;;;;20.22;61.99;95776.66;4376364;32;20213;-59
2022/05/27 11:04:54;;;;;;;0.30;0.30;;;;;;;20.36;62.25;95776.28;4357269;32;20189;-58
2022/05/27 11:07:31;;;;;;;0.20;0.20;;;;;;;20.57;60.83;95776.88;4384930;32;20248;-59
2022/05/27 11:10:08;;;;;;;0.10;0.10;;;;;;;20.64;60.18;95772.78;4379178;32;20215;-59
2022/05/27 11:15:10;;;;;;;0.10;0.10;;;;;;;20.61;58.83;95781.56;4382607;32;20181;-59
2022/05/27 11:16:05;;;;;;;0.20;0.20;;;;;;;20.57;60.00;95787.66;4384579;32;20270;-59
2022/05/27 11:19:13;;;;;;;0.37;0.30;;;;;;;20.67;59.98;95782.88;4363795;32;20182;-58
2022/05/27 11:21:59;;;;;;;0.00;0.00;;;;;;;20.66;59.99;95776.69;4386143;32;20254;-59
2022/05/27 11:24:50;;;;;;;0.27;0.27;;;;;;;20.71;60.16;95767.59;4381905;32;20229;-59
2022/05/27 11:27:36;;;;;;;0.00;0.00;;;;;;;20.86;58.92;95764.09;4378567;32;20185;-59
2022/05/27 11:30:27;;;;;;;0.50;0.50;;;;;;;20.97;58.34;95765.16;4385893;32;20189;-59
2022/05/27 11:33:13;;;;;;;0.57;0.57;;;;;;;21.11;57.83;95765.50;4387108;32;20180;-59
2022/05/27 11:35:51;;;;;;;0.20;0.20;;;;;;;21.15;58.88;95757.50;4381360;32;20198;-59
2022/05/27 11:38:50;;;;;;;0.73;0.30;;;;;;;21.03;59.02;95757.56;4378834;32;20215;-59
2022/05/27 11:41:23;;;;;;;0.00;0.00;;;;;;;20.86;57.79;95750.63;4375893;32;20212;-60
2022/05/27 11:44:03;;;;;;;0.10;0.10;;;;;;;20.86;58.54;95747.91;4389892;32;20268;-59
2022/05/27 11:46:40;;;;;;;0.00;0.00;;;;;;;20.79;58.88;95737.72;4387266;32;20255;-59
2022/05/27 11:49:27;;;;;;;0.67;0.30;;;;;;;20.88;58.53;95738.34;4372832;32;20292;-58
2022/05/27 11:52:09;;;;;;;0.10;0.10;;;;;;;21.06;56.83;95732.59;4387389;32;20195;-57
2022/05/27 11:55:03;;;;;;;0.20;0.20;;;;;;;21.13;58.47;95736.25;4381604;32;20195;-58
2022/05/27 11:57:43;;;;;;;0.00;0.00;;;;;;;21.09;58.81;95729.97;4370189;32;20215;-59
2022/05/27 12:00:12;;;;;;;0.13;0.13;;;;;;;21.04;58.40;95722.16;4383340;32;20305;-59
2022/05/27 12:02:54;;;;;;;0.07;0.07;;;;;;;21.06;57.86;95725.28;4380545;32;20181;-58
2022/05/27 12:05:29;;;;;;;0.37;0.37;;;;;;;21.09;59.34;95718.41;4393191;32;20285;-59
2022/05/27 12:08:22;;;;;;;0.20;0.20;;;;;;;21.16;59.49;95730.16;4382961;32;20291;-59
2022/05/27 12:10:53;;;;;;;0.37;0.37;;;;;;;21.11;58.34;95711.53;4391472;32;20211;-59
2022/05/27 12:13:27;;;;;;;0.33;0.33;;;;;;;21.12;58.17;95694.19;4389593;32;20177;-58
2022/05/27 12:15:58;;;;;;;0.27;0.27;;;;;;;21.09;59.49;95692.19;4393705;32;20271;-59
2022/05/27 12:18:55;;;;;;;0.23;0.23;;;;;;;21.10;59.80;95693.78;4380082;32;20195;-59
2022/05/27 12:21:30;;;;;;;0.20;0.20;;;;;;;21.20;58.58;95687.06;4371823;32;20196;-58
2022/05/27 12:24:10;;;;;;;0.30;0.30;;;;;;;21.34;58.62;95684.69;4385354;32;20192;-59
2022/05/27 12:26:37;;;;;;;0.13;0.13;;;;;;;21.44;57.09;95684.12;4383503;32;20221;-59
2022/05/27 12:29:07;;;;;;;0.20;0.20;;;;;;;21.40;56.99;95690.59;4392807;32;20235;-59
2022/05/27 12:31:33;;;;;;;0.30;0.30;;;;;;;21.35;56.22;95677.38;4378570;32;20263;-58